Time;durP1;ratioP1;P1;durP2;ratioP2;P2;SDS_P1;SDS_P2;PMS_P1;PMS_P2;Temp;Humidity;BMP_temperature;BMP_pressure;BME280_temperature;BME280_humidity;BME280_pressure;Samples;Min_cycle;Max_cycle;Signal;HPM_P1;HPM_P2
2021/01/26 00:02:37;;;;;;;99.27;45.37;;;;;;;1.66;100.00;99526.75;4981093;28;20199;-30
2021/01/26 00:05:24;;;;;;;103.60;44.27;;;;;;;1.79;100.00;99526.94;4979777;28;20301;-30
2021/01/26 00:08:11;;;;;;;86.37;39.93;;;;;;;1.61;100.00;99530.03;4979897;28;20199;-29
2021/01/26 00:10:58;;;;;;;103.13;45.77;;;;;;;1.87;100.00;99530.44;4980652;28;20223;-30
2021/01/26 00:13:44;;;;;;;108.90;49.17;;;;;;;1.88;100.00;99524.50;4979826;28;20227;-30
2021/01/26 00:16:32;;;;;;;105.67;45.40;;;;;;;1.99;100.00;99530.63;4980952;28;20311;-30
2021/01/26 00:19:18;;;;;;;106.13;48.20;;;;;;;1.98;100.00;99534.00;4980322;28;20602;-29
2021/01/26 00:22:04;;;;;;;101.90;48.47;;;;;;;1.89;100.00;99537.28;4983711;28;20198;-30
2021/01/26 00:24:52;;;;;;;100.70;47.57;;;;;;;1.96;100.00;99521.22;4984345;28;20637;-30
2021/01/26 00:27:38;;;;;;;102.03;46.73;;;;;;;1.94;100.00;99527.16;4983470;28;20203;-30
2021/01/26 00:30:26;;;;;;;97.13;47.43;;;;;;;2.15;100.00;99527.44;4983339;28;20210;-30
2021/01/26 00:33:18;;;;;;;104.97;49.17;;;;;;;1.96;100.00;99518.69;4984913;28;20273;-30
2021/01/26 00:36:04;;;;;;;96.60;48.13;;;;;;;1.92;100.00;99504.19;4983555;28;20203;-30
2021/01/26 00:38:51;;;;;;;97.47;46.73;;;;;;;2.07;100.00;99512.03;4984063;28;20207;-30
2021/01/26 00:41:37;;;;;;;95.50;46.83;;;;;;;1.97;100.00;99504.25;4984202;28;20210;-30
2021/01/26 00:44:23;;;;;;;89.97;45.87;;;;;;;2.04;100.00;99501.78;4982734;28;20613;-30
2021/01/26 00:47:10;;;;;;;95.07;44.97;;;;;;;2.05;100.00;99498.38;4983447;28;20533;-30
2021/01/26 00:49:57;;;;;;;89.10;45.43;;;;;;;1.98;100.00;99488.09;4986441;28;20202;-29
2021/01/26 00:52:43;;;;;;;77.63;42.70;;;;;;;2.08;100.00;99492.47;4984368;28;20270;-30
2021/01/26 00:55:30;;;;;;;80.90;42.53;;;;;;;1.99;100.00;99480.47;4983052;28;20199;-30
2021/01/26 00:58:16;;;;;;;80.27;43.00;;;;;;;2.12;100.00;99481.47;4983666;28;20198;-30
2021/01/26 01:01:04;;;;;;;74.03;41.43;;;;;;;2.00;100.00;99479.63;4985303;28;20195;-30
2021/01/26 01:03:51;;;;;;;86.10;43.70;;;;;;;2.10;100.00;99475.50;4982354;28;20198;-30
2021/01/26 01:06:38;;;;;;;79.63;44.20;;;;;;;2.07;100.00;99470.34;4983132;28;20200;-30
2021/01/26 01:09:24;;;;;;;79.70;44.13;;;;;;;2.12;100.00;99471.28;4984084;28;20235;-30
2021/01/26 01:12:11;;;;;;;82.07;44.27;;;;;;;2.22;100.00;99470.53;4982337;28;20226;-30
2021/01/26 01:14:57;;;;;;;81.43;44.30;;;;;;;2.14;100.00;99471.28;4982246;28;20277;-30
2021/01/26 01:17:43;;;;;;;82.23;45.00;;;;;;;2.17;100.00;99469.66;4981960;28;20199;-30
2021/01/26 01:20:30;;;;;;;78.73;44.53;;;;;;;2.20;100.00;99467.09;4982063;28;20207;-30
2021/01/26 01:23:17;;;;;;;74.27;43.07;;;;;;;2.29;100.00;99462.13;4984991;28;20488;-30
2021/01/26 01:26:04;;;;;;;74.93;41.63;;;;;;;2.26;100.00;99451.03;4982204;28;20614;-30
2021/01/26 01:28:51;;;;;;;66.03;40.40;;;;;;;2.27;100.00;99443.38;4983951;28;20259;-30
2021/01/26 01:31:37;;;;;;;80.30;41.40;;;;;;;2.29;100.00;99441.72;4982014;28;20278;-30
2021/01/26 01:34:23;;;;;;;70.97;42.63;;;;;;;2.38;100.00;99452.03;4982382;28;20231;-30
2021/01/26 01:37:10;;;;;;;76.10;43.23;;;;;;;2.46;100.00;99441.03;4982101;28;20295;-31
2021/01/26 01:39:57;;;;;;;78.07;41.57;;;;;;;2.52;100.00;99441.09;4982245;28;20589;-30
2021/01/26 01:42:43;;;;;;;71.27;40.60;;;;;;;2.49;100.00;99444.47;4981828;28;20223;-30
2021/01/26 01:45:30;;;;;;;77.50;41.90;;;;;;;2.57;100.00;99453.06;4980991;28;20199;-30
2021/01/26 01:48:20;;;;;;;78.70;43.57;;;;;;;2.54;100.00;99440.28;4982762;28;20199;-30
2021/01/26 01:51:10;;;;;;;70.07;40.80;;;;;;;2.60;100.00;99447.97;4981745;28;20230;-30
2021/01/26 01:54:01;;;;;;;62.70;39.67;;;;;;;2.53;100.00;99441.13;4984603;28;20697;-31
2021/01/26 01:56:59;;;;;;;64.30;40.87;;;;;;;2.58;100.00;99433.50;4984565;28;20586;-30
2021/01/26 01:59:48;;;;;;;61.17;36.93;;;;;;;2.60;100.00;99436.94;4980982;28;20350;-30
2021/01/26 02:02:40;;;;;;;56.67;36.10;;;;;;;2.68;100.00;99446.34;4981340;28;20199;-30
2021/01/26 02:05:27;;;;;;;51.50;34.87;;;;;;;2.71;100.00;99445.53;4981297;28;20608;-30
2021/01/26 02:08:20;;;;;;;53.80;33.13;;;;;;;2.84;100.00;99451.59;4980513;28;20198;-30
2021/01/26 02:11:07;;;;;;;52.53;32.47;;;;;;;2.70;100.00;99443.81;4982056;28;20247;-30
2021/01/26 02:13:55;;;;;;;53.20;31.23;;;;;;;2.78;100.00;99447.31;4981587;28;20202;-30
2021/01/26 02:16:58;;;;;;;41.17;29.93;;;;;;;2.76;100.00;99449.00;4985248;28;20253;-31
2021/01/26 02:20:39;;;;;;;53.03;31.50;;;;;;;3.01;100.00;99450.03;4980629;28;20508;-30
2021/01/26 02:24:04;;;;;;;48.90;30.67;;;;;;;2.80;100.00;99435.38;4981080;28;20207;-30
2021/01/26 02:27:21;;;;;;;39.47;27.23;;;;;;;2.92;100.00;99434.66;4980808;28;20748;-30
2021/01/26 02:30:27;;;;;;;38.97;27.27;;;;;;;2.97;100.00;99453.44;4984386;28;20264;-30
2021/01/26 02:33:48;;;;;;;39.27;25.37;;;;;;;2.94;100.00;99455.97;4980274;28;20302;-31
2021/01/26 02:37:01;;;;;;;35.80;24.90;;;;;;;3.01;100.00;99439.81;4980970;28;20310;-30
2021/01/26 02:39:58;;;;;;;39.03;24.07;;;;;;;2.96;100.00;99451.72;4984808;28;20524;-31
2021/01/26 02:42:52;;;;;;;31.60;23.70;;;;;;;2.95;100.00;99460.22;4980081;28;20199;-30
2021/01/26 02:45:43;;;;;;;35.70;24.53;;;;;;;2.95;100.00;99461.09;4980178;28;20255;-30
2021/01/26 02:48:41;;;;;;;32.70;21.70;;;;;;;2.92;100.00;99461.06;4980870;28;20258;-31
2021/01/26 02:51:48;;;;;;;31.77;21.50;;;;;;;2.91;100.00;99461.91;4980187;28;20388;-30
2021/01/26 02:54:44;;;;;;;32.07;21.93;;;;;;;2.89;100.00;99460.16;4980245;28;20207;-30
2021/01/26 02:57:36;;;;;;;35.10;21.10;;;;;;;3.13;100.00;99462.09;4980030;28;20211;-30
2021/01/26 03:00:25;;;;;;;33.33;19.50;;;;;;;2.98;100.00;99463.66;4980040;28;20203;-30
2021/01/26 03:03:18;;;;;;;35.63;19.20;;;;;;;2.97;100.00;99446.63;4985284;28;20222;-30
2021/01/26 03:06:08;;;;;;;29.17;17.63;;;;;;;3.06;100.00;99450.94;4980502;28;20263;-30
2021/01/26 03:09:01;;;;;;;28.00;16.60;;;;;;;3.10;100.00;99456.09;4980155;28;20230;-30
2021/01/26 03:11:52;;;;;;;22.53;16.23;;;;;;;2.94;100.00;99456.81;4980337;28;20366;-30
2021/01/26 03:14:44;;;;;;;25.50;15.57;;;;;;;2.99;100.00;99462.84;4980309;28;20211;-30
2021/01/26 03:17:34;;;;;;;22.23;14.63;;;;;;;3.02;100.00;99465.38;4980250;28;20199;-30
2021/01/26 03:20:26;;;;;;;26.33;15.73;;;;;;;2.97;100.00;99463.66;4980379;28;20219;-30
2021/01/26 03:23:17;;;;;;;26.60;14.33;;;;;;;3.05;100.00;99473.06;4980269;28;20602;-30
2021/01/26 03:26:06;;;;;;;25.37;14.13;;;;;;;2.95;100.00;99473.84;4981229;28;20200;-30
2021/01/26 03:28:56;;;;;;;20.17;13.00;;;;;;;3.03;100.00;99481.56;4980751;28;20606;-30
2021/01/26 03:31:48;;;;;;;24.77;13.67;;;;;;;3.09;100.00;99485.03;4983597;28;20322;-30
2021/01/26 03:34:35;;;;;;;23.57;12.10;;;;;;;3.02;100.00;99480.72;4979798;28;20203;-30
2021/01/26 03:37:21;;;;;;;18.00;11.40;;;;;;;3.00;100.00;99484.09;4980486;28;20235;-30
2021/01/26 03:40:08;;;;;;;19.90;12.07;;;;;;;2.94;100.00;99487.47;4981620;28;20346;-30
2021/01/26 03:42:54;;;;;;;20.43;11.90;;;;;;;3.02;100.00;99488.38;4980355;28;20199;-30
2021/01/26 03:45:42;;;;;;;18.43;10.93;;;;;;;3.07;100.00;99484.16;4979836;28;20218;-30
2021/01/26 03:48:47;;;;;;;23.93;11.47;;;;;;;3.00;100.00;99490.06;4981420;28;20195;-30
2021/01/26 03:51:44;;;;;;;15.73;10.07;;;;;;;3.07;100.00;99491.84;4979442;28;20435;-30
2021/01/26 03:54:34;;;;;;;15.87;11.53;;;;;;;3.13;100.00;99492.75;4979648;28;20194;-30
2021/01/26 03:57:32;;;;;;;18.67;10.23;;;;;;;3.06;100.00;99500.34;4979331;28;20211;-30
2021/01/26 04:00:28;;;;;;;18.47;10.03;;;;;;;3.03;100.00;99507.13;4978898;28;20199;-30
2021/01/26 04:03:32;;;;;;;16.73;10.13;;;;;;;3.24;100.00;99504.75;4980334;28;20693;-30
2021/01/26 04:06:29;;;;;;;22.00;10.83;;;;;;;3.14;100.00;99508.09;4979440;28;20592;-30
2021/01/26 04:09:19;;;;;;;15.83;10.60;;;;;;;3.08;100.00;99505.47;4982799;28;20327;-30
2021/01/26 04:12:11;;;;;;;17.90;10.57;;;;;;;3.23;100.00;99515.81;4979798;28;20350;-30
2021/01/26 04:15:03;;;;;;;18.67;11.30;;;;;;;3.10;100.00;99519.97;4981788;28;20195;-30
2021/01/26 04:17:53;;;;;;;20.93;11.37;;;;;;;3.27;100.00;99521.81;4982916;28;20478;-30
2021/01/26 04:20:42;;;;;;;17.60;10.43;;;;;;;3.19;100.00;99531.13;4980488;28;20199;-30
2021/01/26 04:23:29;;;;;;;17.57;10.13;;;;;;;3.23;100.00;99525.19;4979387;28;20203;-30
2021/01/26 04:26:18;;;;;;;20.07;9.83;;;;;;;3.23;100.00;99525.19;4978987;28;20198;-30
2021/01/26 04:29:05;;;;;;;16.73;9.77;;;;;;;3.36;100.00;99539.78;4979241;28;20203;-30
2021/01/26 04:31:52;;;;;;;16.50;9.20;;;;;;;3.20;100.00;99548.16;4978433;28;20231;-30
2021/01/26 04:34:38;;;;;;;17.57;9.93;;;;;;;3.16;100.00;99547.28;4978782;28;20203;-29
2021/01/26 04:37:24;;;;;;;19.73;10.47;;;;;;;3.15;100.00;99558.34;4979353;28;20199;-30
2021/01/26 04:40:14;;;;;;;17.17;10.17;;;;;;;3.22;100.00;99554.97;4979851;28;20203;-30
2021/01/26 04:43:09;;;;;;;22.23;11.20;;;;;;;3.31;100.00;99574.66;4982713;28;20195;-31
2021/01/26 04:46:05;;;;;;;25.40;10.73;;;;;;;3.26;100.00;99569.50;4979785;28;20207;-30
2021/01/26 04:49:06;;;;;;;20.47;10.87;;;;;;;3.27;100.00;99588.25;4979484;28;20199;-30
2021/01/26 04:52:02;;;;;;;25.03;9.90;;;;;;;3.28;100.00;99582.31;4978765;28;20226;-30
2021/01/26 04:55:06;;;;;;;18.17;9.77;;;;;;;3.23;100.00;99597.59;4978430;28;20199;-30
2021/01/26 04:58:18;;;;;;;19.30;8.80;;;;;;;3.40;100.00;99593.47;4978692;28;20354;-30
2021/01/26 05:01:13;;;;;;;20.77;8.83;;;;;;;3.22;100.00;99600.13;4979121;28;20298;-29
2021/01/26 05:04:08;;;;;;;18.30;9.53;;;;;;;3.26;100.00;99600.16;4980342;28;20207;-30
2021/01/26 05:07:02;;;;;;;22.87;8.23;;;;;;;3.26;100.00;99607.84;4979616;28;20621;-30
2021/01/26 05:09:54;;;;;;;15.70;7.90;;;;;;;3.36;100.00;99614.78;4982330;28;20356;-30
2021/01/26 05:12:46;;;;;;;16.10;8.30;;;;;;;3.31;100.00;99611.31;4982653;28;20235;-29
2021/01/26 05:15:38;;;;;;;16.57;7.63;;;;;;;3.33;100.00;99621.53;4982396;28;20200;-30
2021/01/26 05:18:29;;;;;;;20.27;8.87;;;;;;;3.28;100.00;99626.59;4982157;28;20266;-30
2021/01/26 05:21:27;;;;;;;17.37;7.17;;;;;;;3.36;100.00;99619.03;4982177;28;20203;-30
2021/01/26 05:24:21;;;;;;;15.80;7.50;;;;;;;3.27;100.00;99635.09;4981698;28;20196;-30
2021/01/26 05:27:08;;;;;;;22.30;7.40;;;;;;;3.20;100.00;99635.88;4981225;28;20210;-30
2021/01/26 05:29:56;;;;;;;13.87;7.70;;;;;;;3.14;100.00;99640.94;4981516;28;20367;-30
2021/01/26 05:32:45;;;;;;;15.90;7.27;;;;;;;3.14;100.00;99633.28;4981753;28;20325;-30
2021/01/26 05:35:32;;;;;;;18.00;7.77;;;;;;;3.19;100.00;99646.09;4981525;28;20207;-30
2021/01/26 05:38:19;;;;;;;15.20;7.90;;;;;;;3.17;100.00;99658.00;4981050;28;20307;-30
2021/01/26 05:41:09;;;;;;;13.93;6.67;;;;;;;3.16;100.00;99661.41;4980250;28;20319;-30
2021/01/26 05:43:57;;;;;;;10.87;6.00;;;;;;;3.20;100.00;99650.38;4981436;28;20265;-30
2021/01/26 05:46:46;;;;;;;9.87;5.90;;;;;;;3.26;100.00;99671.72;4981403;28;20195;-30
2021/01/26 05:49:38;;;;;;;10.10;5.93;;;;;;;3.47;100.00;99669.41;4981703;28;20206;-29
2021/01/26 05:52:34;;;;;;;15.70;5.50;;;;;;;3.47;100.00;99678.75;4981733;28;20227;-30
2021/01/26 05:55:25;;;;;;;12.47;5.33;;;;;;;3.47;100.00;99676.22;4982663;28;20196;-30
2021/01/26 05:58:14;;;;;;;14.67;5.90;;;;;;;3.63;100.00;99687.44;4981360;28;20198;-30
2021/01/26 06:01:05;;;;;;;10.20;4.97;;;;;;;3.71;100.00;99696.91;4981173;28;20204;-30
2021/01/26 06:04:05;;;;;;;7.43;4.90;;;;;;;3.72;100.00;99697.78;4981689;28;20198;-30
2021/01/26 06:06:55;;;;;;;14.57;6.80;;;;;;;3.49;100.00;99707.75;4981428;28;20203;-30
2021/01/26 06:09:43;;;;;;;11.40;5.77;;;;;;;3.66;100.00;99713.91;4984248;28;20522;-30
2021/01/26 06:12:30;;;;;;;14.93;7.90;;;;;;;3.60;100.00;99713.84;4982194;28;20227;-30
2021/01/26 06:15:21;;;;;;;12.17;6.30;;;;;;;3.67;100.00;99725.00;4980605;28;20195;-30
2021/01/26 06:18:16;;;;;;;15.73;5.23;;;;;;;3.61;100.00;99730.88;4979848;28;20210;-30
2021/01/26 06:21:06;;;;;;;16.23;6.17;;;;;;;3.75;100.00;99747.25;4982129;28;20358;-29
2021/01/26 06:23:57;;;;;;;12.50;5.33;;;;;;;4.06;100.00;99755.22;4981534;28;20613;-30
2021/01/26 06:26:52;;;;;;;14.93;5.90;;;;;;;3.58;100.00;99753.03;4979340;28;20306;-30
2021/01/26 06:29:46;;;;;;;14.57;7.33;;;;;;;3.63;100.00;99757.34;4962162;29;20207;-30
2021/01/26 06:32:54;;;;;;;12.43;6.90;;;;;;;3.71;100.00;99754.88;4962845;29;20251;-30
2021/01/26 06:35:51;;;;;;;14.50;7.97;;;;;;;3.70;100.00;99764.25;4962496;29;20220;-29
2021/01/26 06:39:04;;;;;;;17.37;7.10;;;;;;;3.80;100.00;99776.28;4963677;29;20232;-29
2021/01/26 06:42:04;;;;;;;19.20;8.40;;;;;;;3.59;100.00;99776.06;4962078;29;20731;-29
2021/01/26 06:45:08;;;;;;;17.40;7.17;;;;;;;3.92;100.00;99787.50;4962287;29;20471;-30
2021/01/26 06:48:09;;;;;;;15.63;6.40;;;;;;;3.77;100.00;99791.63;4962372;29;20602;-29
2021/01/26 06:51:10;;;;;;;10.83;6.73;;;;;;;3.76;100.00;99801.81;4963170;29;20212;-29
2021/01/26 06:54:27;;;;;;;12.47;7.60;;;;;;;3.79;100.00;99807.84;4961880;29;20283;-29
2021/01/26 06:57:46;;;;;;;14.37;7.57;;;;;;;3.97;100.00;99812.28;4950041;29;20263;-30
2021/01/26 07:00:49;;;;;;;12.23;6.20;;;;;;;3.68;100.00;99819.63;4961527;29;20305;-29
2021/01/26 07:04:07;;;;;;;11.30;5.83;;;;;;;3.56;100.00;99839.94;4962122;29;20196;-29
2021/01/26 07:07:39;;;;;;;15.00;5.70;;;;;;;3.65;100.00;99847.72;4962281;28;20204;-29
2021/01/26 07:10:35;;;;;;;14.17;6.33;;;;;;;3.68;100.00;99854.56;4961735;29;20316;-29
2021/01/26 07:13:32;;;;;;;17.97;8.73;;;;;;;3.44;100.00;99870.47;4960861;29;20240;-28
2021/01/26 07:16:38;;;;;;;15.37;7.47;;;;;;;3.28;100.00;99871.94;4961456;28;20199;-28
2021/01/26 07:19:37;;;;;;;21.77;8.67;;;;;;;3.40;100.00;99877.22;4960611;29;20200;-30
2021/01/26 07:23:02;;;;;;;26.00;10.57;;;;;;;3.07;100.00;99892.06;4970701;29;20211;-30
2021/01/26 07:26:20;;;;;;;26.77;11.10;;;;;;;2.87;100.00;99904.53;4962021;29;20223;-29
2021/01/26 07:29:24;;;;;;;31.80;12.73;;;;;;;2.96;100.00;99911.50;4960718;28;20208;-29
2021/01/26 07:32:16;;;;;;;34.67;12.83;;;;;;;3.03;100.00;99919.28;4960688;29;20311;-29
2021/01/26 07:35:11;;;;;;;34.67;13.93;;;;;;;3.09;100.00;99928.72;4961351;29;20264;-29
2021/01/26 07:38:01;;;;;;;30.83;13.07;;;;;;;3.26;100.00;99931.53;4961536;29;20247;-29
2021/01/26 07:40:52;;;;;;;34.70;15.93;;;;;;;2.75;100.00;99937.53;4961794;29;20211;-28
2021/01/26 07:43:43;;;;;;;35.57;15.60;;;;;;;2.82;100.00;99948.69;4962840;29;20191;-31
2021/01/26 07:46:36;;;;;;;40.20;17.60;;;;;;;2.35;100.00;99954.69;4960781;29;20203;-29
2021/01/26 07:49:30;;;;;;;41.43;17.73;;;;;;;2.39;100.00;99964.13;4959655;29;20299;-30
2021/01/26 07:52:18;;;;;;;45.87;18.10;;;;;;;2.41;100.00;99965.00;4961260;29;20256;-30
2021/01/26 07:55:09;;;;;;;45.77;18.23;;;;;;;2.68;100.00;99976.56;4960309;29;20207;-30
2021/01/26 07:58:02;;;;;;;46.17;20.00;;;;;;;2.74;100.00;99976.69;4959671;29;20204;-30
2021/01/26 08:00:58;;;;;;;47.17;19.10;;;;;;;2.70;100.00;99980.88;4959943;29;20255;-32
2021/01/26 08:03:44;;;;;;;48.33;21.07;;;;;;;2.45;100.00;99985.47;4959992;29;20195;-28
2021/01/26 08:06:52;;;;;;;54.00;21.80;;;;;;;2.53;100.00;99989.06;4960417;29;20203;-29
2021/01/26 08:09:43;;;;;;;62.07;23.03;;;;;;;2.71;100.00;99997.91;4960361;29;20635;-30
2021/01/26 08:12:43;;;;;;;60.10;24.80;;;;;;;2.46;100.00;99999.97;4960709;29;20805;-29
2021/01/26 08:15:31;;;;;;;56.27;22.00;;;;;;;2.50;100.00;100006.84;4960339;29;20207;-30
2021/01/26 08:18:25;;;;;;;61.20;23.37;;;;;;;2.49;100.00;100026.41;4960731;29;20211;-28
2021/01/26 08:21:32;;;;;;;62.90;26.33;;;;;;;2.37;100.00;100021.94;4960737;29;20200;-29
2021/01/26 08:24:30;;;;;;;53.87;22.67;;;;;;;2.50;100.00;100028.13;4959970;29;20263;-29
2021/01/26 08:27:55;;;;;;;50.70;22.27;;;;;;;2.35;100.00;100044.00;4960189;29;20228;-29
2021/01/26 08:31:03;;;;;;;56.37;23.87;;;;;;;2.57;100.00;100039.34;4961396;29;20204;-30
2021/01/26 08:33:52;;;;;;;53.43;22.83;;;;;;;2.51;100.00;100050.28;4960753;28;20200;-29
2021/01/26 08:36:43;;;;;;;50.73;23.37;;;;;;;2.58;100.00;100043.63;4960996;29;20371;-29
2021/01/26 08:39:40;;;;;;;50.93;21.77;;;;;;;2.70;100.00;100051.50;4960814;29;20263;-29
2021/01/26 08:42:53;;;;;;;51.63;22.27;;;;;;;2.78;100.00;100054.22;4961589;28;20192;-29
2021/01/26 08:45:56;;;;;;;49.20;20.07;;;;;;;2.85;100.00;100066.25;4963639;29;20210;-30
2021/01/26 08:49:00;;;;;;;46.73;21.37;;;;;;;2.55;100.00;100076.72;4962917;29;20199;-29
2021/01/26 08:51:47;;;;;;;41.50;20.20;;;;;;;2.78;100.00;100074.66;4963441;29;20218;-29
2021/01/26 08:54:39;;;;;;;48.63;20.93;;;;;;;2.98;100.00;100081.84;4962022;29;20211;-30
2021/01/26 08:57:43;;;;;;;45.00;20.67;;;;;;;2.84;100.00;100085.81;4965773;29;20255;-29
2021/01/26 09:00:42;;;;;;;40.70;20.53;;;;;;;2.75;100.00;100093.31;4962033;29;20263;-30
2021/01/26 09:03:35;;;;;;;49.70;22.63;;;;;;;2.51;100.00;100091.13;4964005;29;20228;-29
2021/01/26 09:06:44;;;;;;;48.53;22.83;;;;;;;2.74;100.00;100102.66;4963437;29;20529;-29
2021/01/26 09:09:53;;;;;;;43.50;21.10;;;;;;;2.31;100.00;100107.72;4963626;29;20251;-28
2021/01/26 09:12:42;;;;;;;49.47;23.30;;;;;;;2.21;100.00;100106.63;4962507;29;20227;-30
2021/01/26 09:15:29;;;;;;;56.93;25.77;;;;;;;2.32;100.00;100120.50;4964095;29;20347;-29
2021/01/26 09:18:18;;;;;;;63.10;25.53;;;;;;;2.37;100.00;100118.06;4961801;29;20208;-29
2021/01/26 09:21:08;;;;;;;61.20;26.83;;;;;;;2.26;100.00;100120.34;4964767;29;20224;-29
2021/01/26 09:23:57;;;;;;;61.03;26.70;;;;;;;2.56;100.00;100126.97;4962702;29;20298;-30
2021/01/26 09:26:43;;;;;;;59.97;25.47;;;;;;;2.54;100.00;100131.19;4963041;29;20322;-30
2021/01/26 09:29:30;;;;;;;68.23;27.93;;;;;;;2.57;100.00;100126.13;4962806;29;20204;-30
2021/01/26 09:32:19;;;;;;;66.63;27.57;;;;;;;2.49;100.00;100138.72;4964873;29;20228;-29
2021/01/26 09:35:21;;;;;;;60.40;25.97;;;;;;;2.51;100.00;100136.22;4962879;29;20203;-29
2021/01/26 09:38:14;;;;;;;54.97;25.47;;;;;;;2.92;100.00;100145.59;4963072;29;20194;-30
2021/01/26 09:41:06;;;;;;;56.63;25.83;;;;;;;2.53;100.00;100152.44;4962646;28;20268;-31
2021/01/26 09:43:57;;;;;;;55.27;24.50;;;;;;;2.65;100.00;100160.34;4963321;29;20227;-29
2021/01/26 09:46:47;;;;;;;59.07;24.63;;;;;;;2.95;100.00;100158.44;4962682;29;20613;-29
2021/01/26 09:49:38;;;;;;;44.37;21.10;;;;;;;3.13;100.00;100160.47;4961113;29;20622;-29
2021/01/26 09:52:25;;;;;;;38.03;21.40;;;;;;;3.31;100.00;100175.31;4961572;28;20260;-30
2021/01/26 09:55:19;;;;;;;32.77;18.37;;;;;;;4.35;100.00;100172.81;4960863;29;20592;-30
2021/01/26 09:58:09;;;;;;;33.00;18.93;;;;;;;4.80;100.00;100167.44;4962190;29;20275;-29
2021/01/26 10:00:56;;;;;;;29.27;17.47;;;;;;;3.58;100.00;100173.25;4962881;29;20204;-30
2021/01/26 10:03:46;;;;;;;30.03;16.17;;;;;;;4.16;100.00;100174.22;4962658;29;20278;-30
2021/01/26 10:06:35;;;;;;;32.27;17.20;;;;;;;3.88;100.00;100184.84;4961830;29;20199;-30
2021/01/26 10:09:26;;;;;;;30.87;17.70;;;;;;;3.36;100.00;100192.47;4961954;29;20622;-30
2021/01/26 10:12:28;;;;;;;34.63;17.80;;;;;;;3.36;100.00;100195.00;4963038;29;20232;-30
2021/01/26 10:15:33;;;;;;;30.73;16.97;;;;;;;3.28;100.00;100196.56;4967312;29;20203;-30
2021/01/26 10:18:25;;;;;;;32.67;17.37;;;;;;;3.54;100.00;100198.75;4962925;29;20355;-29
2021/01/26 10:21:13;;;;;;;28.90;16.20;;;;;;;4.12;100.00;100203.16;4963702;29;20682;-30
2021/01/26 10:24:05;;;;;;;27.93;16.17;;;;;;;3.89;100.00;100199.34;4962380;29;20203;-30
2021/01/26 10:27:05;;;;;;;24.67;14.37;;;;;;;3.66;100.00;100211.75;4964922;29;20203;-30
2021/01/26 10:30:10;;;;;;;23.07;13.67;;;;;;;3.22;100.00;100218.56;4962578;29;20223;-29
2021/01/26 10:32:57;;;;;;;21.93;13.33;;;;;;;3.53;100.00;100230.25;4962083;29;20222;-29
2021/01/26 10:35:46;;;;;;;22.83;12.77;;;;;;;3.41;100.00;100233.44;4964763;29;20359;-29
2021/01/26 10:38:33;;;;;;;14.33;9.43;;;;;;;3.24;100.00;100238.22;4962581;29;20357;-30
2021/01/26 10:41:24;;;;;;;14.67;10.17;;;;;;;3.06;100.00;100248.91;4962344;29;20203;-29
2021/01/26 10:44:15;;;;;;;18.53;11.87;;;;;;;3.48;100.00;100245.50;4963701;29;20204;-30
2021/01/26 10:47:16;;;;;;;20.63;12.80;;;;;;;3.31;100.00;100242.63;4962166;29;20463;-29
2021/01/26 10:50:10;;;;;;;16.30;11.83;;;;;;;3.02;100.00;100248.81;4962376;29;20225;-29
2021/01/26 10:52:56;;;;;;;15.73;11.53;;;;;;;3.27;100.00;100253.63;4962536;29;20231;-30
2021/01/26 10:55:44;;;;;;;17.87;11.53;;;;;;;2.94;100.00;100252.91;4961885;29;20307;-30
2021/01/26 10:58:30;;;;;;;21.83;13.97;;;;;;;2.66;100.00;100248.88;4962346;29;20260;-31
2021/01/26 11:01:20;;;;;;;21.90;13.57;;;;;;;2.91;100.00;100248.59;4961767;29;20199;-31
2021/01/26 11:04:07;;;;;;;18.47;12.63;;;;;;;3.03;100.00;100256.50;4962586;28;20224;-31
2021/01/26 11:06:56;;;;;;;18.03;11.67;;;;;;;2.84;100.00;100259.50;4962520;29;20208;-30
2021/01/26 11:09:42;;;;;;;19.03;12.37;;;;;;;3.02;100.00;100252.22;4960953;29;20247;-30
2021/01/26 11:12:28;;;;;;;18.70;12.37;;;;;;;2.76;100.00;100251.69;4962792;29;20638;-30
2021/01/26 11:15:18;;;;;;;20.80;13.40;;;;;;;3.19;100.00;100260.28;4961705;29;20201;-30
2021/01/26 11:18:05;;;;;;;22.13;13.10;;;;;;;2.80;100.00;100262.81;4961403;29;20220;-30
2021/01/26 11:20:51;;;;;;;20.63;12.97;;;;;;;2.65;100.00;100262.47;4960921;29;20208;-30
2021/01/26 11:23:40;;;;;;;19.70;12.80;;;;;;;2.84;100.00;100269.72;4961532;29;20603;-31
2021/01/26 11:26:30;;;;;;;19.37;13.33;;;;;;;2.98;100.00;100273.47;4961341;29;20591;-30
2021/01/26 11:29:19;;;;;;;22.70;13.40;;;;;;;2.83;100.00;100272.22;4963315;29;20299;-30
2021/01/26 11:32:07;;;;;;;21.47;13.17;;;;;;;2.83;100.00;100275.66;4961957;29;20224;-30
2021/01/26 11:34:54;;;;;;;21.20;12.83;;;;;;;3.23;100.00;100276.50;4961537;29;20226;-30
2021/01/26 11:37:40;;;;;;;19.33;14.10;;;;;;;3.38;100.00;100275.16;4960914;29;20264;-30
2021/01/26 11:40:28;;;;;;;17.57;12.60;;;;;;;5.25;100.00;100276.53;4961325;29;20427;-30
2021/01/26 11:43:21;;;;;;;11.57;9.60;;;;;;;5.77;100.00;100281.47;4961190;28;20585;-30
2021/01/26 11:46:07;;;;;;;12.63;9.80;;;;;;;5.60;100.00;100285.50;4979750;28;20225;-30
2021/01/26 11:48:57;;;;;;;17.77;12.57;;;;;;;5.29;100.00;100286.00;4980178;28;20199;-30
2021/01/26 11:51:44;;;;;;;16.20;12.40;;;;;;;6.39;100.00;100282.94;4979333;28;20332;-31
2021/01/26 11:54:30;;;;;;;15.93;11.77;;;;;;;5.84;100.00;100280.66;4977928;28;20194;-31
2021/01/26 11:57:18;;;;;;;15.33;10.37;;;;;;;5.46;100.00;100281.94;4979837;28;20203;-29
2021/01/26 12:00:10;;;;;;;14.00;10.63;;;;;;;4.95;100.00;100285.56;4967547;28;20215;-29
2021/01/26 12:02:56;;;;;;;16.27;11.80;;;;;;;4.67;100.00;100278.28;4968848;28;20208;-30
2021/01/26 12:05:45;;;;;;;17.07;12.03;;;;;;;3.86;100.00;100287.16;4980608;28;20290;-30
2021/01/26 12:08:32;;;;;;;18.93;12.80;;;;;;;4.15;100.00;100277.44;4982392;28;20609;-30
2021/01/26 12:11:19;;;;;;;14.43;11.80;;;;;;;4.87;100.00;100276.00;4979187;28;20620;-30
2021/01/26 12:14:07;;;;;;;15.33;11.77;;;;;;;5.02;100.00;100277.09;4975052;28;20303;-30
2021/01/26 12:16:53;;;;;;;15.87;11.17;;;;;;;5.12;100.00;100281.50;4964471;28;20209;-31
2021/01/26 12:19:43;;;;;;;15.07;11.20;;;;;;;5.94;100.00;100285.94;4968358;28;20258;-30
2021/01/26 12:22:41;;;;;;;11.80;9.97;;;;;;;5.74;100.00;100285.69;4990173;28;20201;-30
2021/01/26 12:25:34;;;;;;;11.37;9.87;;;;;;;5.67;100.00;100283.88;4983399;28;20238;-30
2021/01/26 12:28:30;;;;;;;16.00;12.70;;;;;;;5.70;100.00;100286.50;4983566;28;20227;-31
2021/01/26 12:31:26;;;;;;;17.13;11.87;;;;;;;4.61;100.00;100288.44;4983757;28;20693;-30
2021/01/26 12:34:13;;;;;;;15.37;11.67;;;;;;;4.32;100.00;100291.41;4983946;28;20314;-30
2021/01/26 12:37:00;;;;;;;15.50;11.60;;;;;;;4.21;100.00;100292.88;4984733;28;20506;-30
2021/01/26 12:39:47;;;;;;;15.30;11.10;;;;;;;4.79;100.00;100286.16;4984820;28;20201;-29
2021/01/26 12:42:33;;;;;;;13.20;10.87;;;;;;;4.91;100.00;100286.34;4983336;28;20202;-33
2021/01/26 12:45:26;;;;;;;17.23;12.10;;;;;;;4.62;100.00;100291.00;4983969;28;20201;-29
2021/01/26 12:48:14;;;;;;;25.13;16.73;;;;;;;4.12;100.00;100290.19;4984083;28;20223;-30
2021/01/26 12:51:01;;;;;;;24.20;18.00;;;;;;;4.26;100.00;100290.41;4985416;28;20203;-30
2021/01/26 12:53:47;;;;;;;17.33;12.33;;;;;;;4.42;100.00;100298.38;4984023;28;20233;-30
2021/01/26 12:56:34;;;;;;;16.37;11.77;;;;;;;4.16;100.00;100294.53;4983191;28;20332;-30
2021/01/26 12:59:20;;;;;;;13.77;10.87;;;;;;;4.22;100.00;100286.94;4984933;28;20201;-30
2021/01/26 13:02:11;;;;;;;16.83;11.83;;;;;;;4.71;100.00;100296.28;4984396;28;20199;-30
2021/01/26 13:04:59;;;;;;;14.33;11.77;;;;;;;5.24;100.00;100290.19;4981080;28;20238;-30
2021/01/26 13:07:46;;;;;;;16.07;12.87;;;;;;;4.88;100.00;100290.56;4984343;28;20229;-31
2021/01/26 13:10:34;;;;;;;16.37;12.33;;;;;;;4.95;100.00;100295.81;4982314;28;20242;-30
2021/01/26 13:13:23;;;;;;;13.93;11.23;;;;;;;4.85;100.00;100296.50;4978565;28;20233;-30
2021/01/26 13:16:10;;;;;;;15.27;11.60;;;;;;;4.68;100.00;100295.38;4965089;29;20219;-30